Aviation Digital Data Service (ADDS)

Output produced by METARs form (0243 UTC 24 July 2017)
found at http://www.aviationweather.gov/adds/metars/
 
TKPK 232339Z 2400/2424 07012KT P6SM FEW022 
     FM241200 09015KT P6SM SCT022 
     FM242200 06010KT P6SM FEW018 SCT040 AMD NOT SKED 2402/2411
       
TAF TKPN 232300Z 2400/2424 09011KT 9999 SCT020 
     PROB30 
     TEMPO 2418/2424 SHRA